Time;durP1;ratioP1;P1;durP2;ratioP2;P2;SDS_P1;SDS_P2;PMS_P1;PMS_P2;Temp;Humidity;BMP_temperature;BMP_pressure;BME280_temperature;BME280_humidity;BME280_pressure;Samples;Min_cycle;Max_cycle;Signal;HPM_P1;HPM_P2
2022/05/07 00:00:30;;;;;;;0.00;0.00;;;12.60;99.90;;;;;;4940262;29;20657;-65
2022/05/07 00:02:56;;;;;;;0.00;0.00;;;12.70;99.90;;;;;;4941434;28;20130;-65
2022/05/07 00:05:22;;;;;;;0.00;0.00;;;12.60;99.90;;;;;;4940042;29;20043;-65
2022/05/07 00:07:48;;;;;;;0.00;0.00;;;12.80;99.90;;;;;;4941853;28;20684;-64
2022/05/07 00:10:14;;;;;;;0.10;0.10;;;12.60;99.90;;;;;;4922704;29;20078;-64
2022/05/07 00:12:41;;;;;;;0.00;0.00;;;12.70;99.90;;;;;;4941462;28;20051;-65
2022/05/07 00:15:07;;;;;;;0.10;0.10;;;12.60;99.90;;;;;;4941951;28;20078;-66
2022/05/07 00:20:17;;;;;;;0.00;0.00;;;12.60;99.90;;;;;;4941712;28;20066;-65
2022/05/07 00:22:43;;;;;;;0.00;0.00;;;12.60;99.90;;;;;;4944927;28;20047;-66
2022/05/07 00:25:09;;;;;;;0.00;0.00;;;12.70;99.90;;;;;;4944150;28;20039;-66
2022/05/07 00:27:35;;;;;;;0.00;0.00;;;12.70;99.90;;;;;;4945040;28;20046;-65
2022/05/07 00:30:00;;;;;;;0.00;0.00;;;12.70;99.90;;;;;;4943849;28;20466;-66
2022/05/07 00:32:26;;;;;;;0.00;0.00;;;12.70;99.90;;;;;;4944625;28;20182;-66
2022/05/07 00:34:52;;;;;;;0.00;0.00;;;12.70;99.90;;;;;;4944260;28;20122;-65
2022/05/07 00:37:18;;;;;;;0.00;0.00;;;12.80;99.90;;;;;;4944514;28;20215;-65
2022/05/07 00:39:44;;;;;;;0.00;0.00;;;12.70;99.90;;;;;;4944249;28;20050;-65
2022/05/07 00:42:09;;;;;;;0.00;0.00;;;12.80;99.90;;;;;;4943401;29;20047;-64
2022/05/07 00:44:35;;;;;;;0.00;0.00;;;12.80;99.90;;;;;;4943388;28;20043;-65
2022/05/07 00:47:25;;;;;;;0.20;0.20;;;12.80;99.90;;;;;;4955303;28;20406;-65
2022/05/07 00:49:54;;;;;;;0.00;0.00;;;13.00;99.90;;;;;;4945571;28;20047;-65
2022/05/07 00:52:19;;;;;;;0.00;0.00;;;12.90;99.90;;;;;;4942986;29;20156;-65
2022/05/07 00:54:46;;;;;;;0.00;0.00;;;13.00;99.90;;;;;;4944013;28;20223;-66
2022/05/07 00:57:14;;;;;;;0.08;0.08;;;12.90;99.90;;;;;;4942522;29;20058;-66
2022/05/07 00:59:40;;;;;;;0.00;0.00;;;12.90;99.90;;;;;;4944572;28;20051;-65
2022/05/07 01:02:05;;;;;;;0.00;0.00;;;12.80;99.90;;;;;;4944405;28;20057;-66
2022/05/07 01:04:31;;;;;;;0.52;0.10;;;12.80;99.90;;;;;;4951404;23;20693;-65
2022/05/07 01:06:57;;;;;;;0.00;0.00;;;12.80;99.90;;;;;;4946987;28;20085;-65
2022/05/07 01:09:23;;;;;;;0.00;0.00;;;12.90;99.90;;;;;;4943617;28;20370;-65
2022/05/07 01:11:50;;;;;;;0.00;0.00;;;12.90;99.90;;;;;;4943683;28;20416;-65
2022/05/07 01:14:16;;;;;;;0.00;0.00;;;13.00;99.90;;;;;;4942069;29;20756;-65
2022/05/07 01:16:42;;;;;;;0.00;0.00;;;12.90;99.90;;;;;;4944437;28;20047;-66
2022/05/07 01:19:07;;;;;;;0.00;0.00;;;13.00;99.90;;;;;;4944790;28;20094;-65
2022/05/07 01:21:33;;;;;;;0.00;0.00;;;13.00;99.90;;;;;;4943683;28;20048;-65
2022/05/07 01:23:59;;;;;;;0.00;0.00;;;13.00;99.90;;;;;;4943656;28;20040;-64
2022/05/07 01:26:26;;;;;;;0.00;0.00;;;13.00;99.90;;;;;;4943071;28;20052;-64
2022/05/07 01:28:59;;;;;;;0.00;0.00;;;13.00;99.90;;;;;;4944298;28;20051;-64
2022/05/07 01:31:26;;;;;;;0.00;0.00;;;13.00;99.90;;;;;;4943236;28;20050;-65
2022/05/07 01:33:53;;;;;;;0.05;0.00;;;13.00;99.90;;;;;;4943536;28;20059;-64
2022/05/07 01:36:19;;;;;;;0.00;0.00;;;13.00;99.90;;;;;;4942630;29;20493;-64
2022/05/07 01:38:45;;;;;;;0.00;0.00;;;13.10;99.90;;;;;;4943775;28;20079;-64
2022/05/07 01:41:11;;;;;;;0.00;0.00;;;13.10;99.90;;;;;;4942121;28;20043;-64
2022/05/07 01:43:36;;;;;;;0.00;0.00;;;13.10;99.90;;;;;;4944306;28;20083;-65
2022/05/07 01:46:02;;;;;;;0.00;0.00;;;13.00;99.90;;;;;;4937877;28;20505;-64
2022/05/07 01:48:29;;;;;;;0.00;0.00;;;13.00;99.90;;;;;;4928172;28;20621;-64
2022/05/07 01:50:55;;;;;;;0.00;0.00;;;13.00;99.90;;;;;;4939403;29;20087;-64
2022/05/07 01:53:22;;;;;;;0.00;0.00;;;13.00;99.90;;;;;;4924407;29;20142;-64
2022/05/07 01:55:48;;;;;;;0.00;0.00;;;13.00;99.90;;;;;;4923815;29;20039;-65
2022/05/07 01:58:14;;;;;;;0.00;0.00;;;13.00;99.90;;;;;;4923878;29;20102;-64
2022/05/07 02:00:42;;;;;;;0.00;0.00;;;13.00;99.90;;;;;;4924687;29;20138;-64
2022/05/07 02:03:09;;;;;;;0.00;0.00;;;12.90;99.90;;;;;;4924912;29;20122;-64
2022/05/07 02:05:35;;;;;;;0.00;0.00;;;12.90;99.90;;;;;;4923859;29;20062;-64
2022/05/07 02:08:02;;;;;;;0.00;0.00;;;12.90;99.90;;;;;;4924275;29;20395;-64
2022/05/07 02:10:28;;;;;;;0.00;0.00;;;12.90;99.90;;;;;;4923287;29;20051;-64
2022/05/07 02:12:54;;;;;;;0.10;0.10;;;12.90;99.90;;;;;;4924245;29;20048;-64
2022/05/07 02:15:20;;;;;;;0.08;0.08;;;12.80;99.90;;;;;;4938219;29;20051;-64
2022/05/07 02:17:45;;;;;;;0.00;0.00;;;12.80;99.90;;;;;;4924150;29;20522;-64
2022/05/07 02:20:11;;;;;;;0.00;0.00;;;12.80;99.90;;;;;;4923880;29;20044;-64
2022/05/07 02:22:37;;;;;;;0.00;0.00;;;12.70;99.90;;;;;;4923983;29;20039;-64
2022/05/07 02:25:04;;;;;;;0.00;0.00;;;12.60;99.90;;;;;;4922467;29;20752;-64
2022/05/07 02:27:29;;;;;;;0.00;0.00;;;12.60;99.90;;;;;;4923547;29;20376;-64
2022/05/07 02:29:55;;;;;;;0.45;0.22;;;12.50;99.90;;;;;;4924070;29;20067;-64
2022/05/07 02:32:21;;;;;;;0.43;0.43;;;12.60;99.90;;;;;;4923094;29;20067;-64
2022/05/07 02:34:47;;;;;;;0.08;0.08;;;12.50;99.90;;;;;;4923846;29;20836;-64
2022/05/07 02:37:13;;;;;;;0.00;0.00;;;12.40;99.90;;;;;;4923539;29;20205;-64
2022/05/07 02:39:38;;;;;;;0.00;0.00;;;12.30;99.90;;;;;;4923672;29;20056;-64
2022/05/07 02:44:49;;;;;;;0.00;0.00;;;12.40;99.90;;;;;;4923645;29;20051;-64
2022/05/07 02:47:14;;;;;;;0.10;0.10;;;12.30;99.90;;;;;;4932869;28;20227;-64
2022/05/07 02:49:40;;;;;;;0.00;0.00;;;12.30;99.90;;;;;;4922983;29;20122;-64
2022/05/07 02:52:06;;;;;;;0.05;0.00;;;12.40;99.90;;;;;;4923792;29;20079;-65
2022/05/07 02:54:32;;;;;;;0.00;0.00;;;12.40;99.90;;;;;;4922851;29;20048;-64
2022/05/07 02:56:58;;;;;;;0.00;0.00;;;12.40;99.90;;;;;;4922810;29;20040;-64
2022/05/07 02:59:24;;;;;;;0.00;0.00;;;12.30;99.90;;;;;;4923224;29;20043;-64
2022/05/07 03:01:50;;;;;;;0.00;0.00;;;12.30;99.90;;;;;;4923357;29;20050;-64
2022/05/07 03:04:16;;;;;;;0.10;0.00;;;12.40;99.90;;;;;;4922895;29;20156;-64
2022/05/07 03:06:41;;;;;;;0.00;0.00;;;12.40;99.90;;;;;;4922773;29;20634;-64
2022/05/07 03:09:07;;;;;;;0.00;0.00;;;12.30;99.90;;;;;;4922782;29;20044;-64
2022/05/07 03:11:34;;;;;;;0.00;0.00;;;12.30;99.90;;;;;;4923044;29;20115;-64
2022/05/07 03:14:03;;;;;;;0.00;0.00;;;12.30;99.90;;;;;;4922912;28;20746;-64
2022/05/07 03:16:30;;;;;;;0.00;0.00;;;12.30;99.90;;;;;;4923204;29;20417;-64
2022/05/07 03:18:56;;;;;;;0.00;0.00;;;12.30;99.90;;;;;;4923203;29;20058;-64
2022/05/07 03:21:21;;;;;;;0.00;0.00;;;12.30;99.90;;;;;;4922923;29;20036;-64
2022/05/07 03:23:47;;;;;;;0.00;0.00;;;12.30;99.90;;;;;;4922499;29;20458;-64
2022/05/07 03:26:13;;;;;;;0.10;0.10;;;12.30;99.90;;;;;;4922373;29;20040;-64
2022/05/07 03:28:39;;;;;;;0.45;0.28;;;12.40;99.90;;;;;;4923455;29;20129;-64
2022/05/07 03:31:05;;;;;;;0.00;0.00;;;12.30;99.90;;;;;;4922970;29;20071;-64
2022/05/07 03:33:32;;;;;;;0.00;0.00;;;12.30;99.90;;;;;;4922715;29;20151;-64
2022/05/07 03:35:58;;;;;;;0.90;0.40;;;12.30;99.90;;;;;;4923174;29;20118;-64
2022/05/07 03:38:24;;;;;;;0.00;0.00;;;12.30;99.90;;;;;;4922015;29;20122;-64
2022/05/07 03:40:50;;;;;;;0.00;0.00;;;12.30;99.90;;;;;;4921777;29;20549;-64
2022/05/07 03:43:15;;;;;;;0.00;0.00;;;12.40;99.90;;;;;;4922889;29;20071;-64
2022/05/07 03:45:42;;;;;;;0.20;0.20;;;12.30;99.90;;;;;;4926505;29;20113;-64
2022/05/07 03:48:09;;;;;;;0.00;0.00;;;12.30;99.90;;;;;;4930129;28;20079;-64
2022/05/07 03:50:35;;;;;;;0.10;0.10;;;12.40;99.90;;;;;;4922849;29;20126;-64
2022/05/07 03:55:45;;;;;;;0.00;0.00;;;12.50;99.90;;;;;;4922309;29;20102;-64
2022/05/07 03:58:15;;;;;;;0.00;0.00;;;12.40;99.90;;;;;;4925523;29;20442;-64
2022/05/07 04:00:41;;;;;;;0.00;0.00;;;12.60;99.90;;;;;;4926407;29;20131;-65
2022/05/07 04:03:06;;;;;;;0.00;0.00;;;12.40;99.90;;;;;;4926490;29;20078;-64
2022/05/07 04:05:32;;;;;;;0.00;0.00;;;12.50;99.90;;;;;;4939925;29;20549;-65
2022/05/07 04:07:58;;;;;;;0.00;0.00;;;12.50;99.90;;;;;;4926438;29;20083;-64
2022/05/07 04:10:24;;;;;;;0.00;0.00;;;12.60;99.90;;;;;;4940307;29;20112;-64
2022/05/07 04:12:51;;;;;;;0.00;0.00;;;12.50;99.90;;;;;;4925831;29;20150;-64
2022/05/07 04:15:21;;;;;;;0.00;0.00;;;12.50;99.90;;;;;;4925934;29;20050;-63
2022/05/07 04:17:47;;;;;;;0.00;0.00;;;12.50;99.90;;;;;;4926485;29;20036;-64
2022/05/07 04:20:13;;;;;;;0.00;0.00;;;12.50;99.90;;;;;;4925885;29;20058;-64
2022/05/07 04:22:39;;;;;;;0.00;0.00;;;12.50;99.90;;;;;;4926079;29;20602;-64
2022/05/07 04:25:07;;;;;;;0.00;0.00;;;12.60;99.90;;;;;;4924441;29;20085;-64
2022/05/07 04:27:32;;;;;;;0.00;0.00;;;12.40;99.90;;;;;;4926178;29;20116;-64
2022/05/07 04:29:58;;;;;;;0.00;0.00;;;12.40;99.90;;;;;;4924263;29;20506;-64
2022/05/07 04:32:24;;;;;;;0.00;0.00;;;12.50;99.90;;;;;;4940503;29;20048;-64
2022/05/07 04:34:50;;;;;;;0.52;0.52;;;12.60;99.90;;;;;;4924654;29;20135;-64
2022/05/07 04:37:16;;;;;;;0.00;0.00;;;12.50;99.90;;;;;;4940381;28;20143;-64
2022/05/07 04:39:42;;;;;;;0.00;0.00;;;12.50;99.90;;;;;;4924640;29;20494;-64
2022/05/07 04:42:08;;;;;;;0.00;0.00;;;12.50;99.90;;;;;;4926269;29;20051;-64
2022/05/07 04:44:34;;;;;;;0.10;0.10;;;12.50;99.90;;;;;;4925441;29;20047;-63
2022/05/07 04:46:59;;;;;;;0.00;0.00;;;12.60;99.90;;;;;;4950316;28;20058;-64
2022/05/07 04:49:25;;;;;;;0.00;0.00;;;12.60;99.90;;;;;;4925820;29;20047;-64
2022/05/07 04:51:51;;;;;;;0.00;0.00;;;12.60;99.90;;;;;;4925847;29;20039;-64
2022/05/07 04:54:20;;;;;;;0.00;0.00;;;12.60;99.90;;;;;;4924876;29;20366;-64
2022/05/07 04:56:50;;;;;;;0.00;0.00;;;12.70;99.90;;;;;;4924902;29;20138;-66
2022/05/07 04:59:18;;;;;;;0.00;0.00;;;12.70;99.90;;;;;;4925415;29;20043;-64
2022/05/07 05:01:43;;;;;;;0.00;0.00;;;12.70;99.90;;;;;;4925696;29;20048;-64
2022/05/07 05:04:10;;;;;;;0.00;0.00;;;12.80;99.90;;;;;;4940015;29;20062;-62
2022/05/07 05:06:36;;;;;;;0.00;0.00;;;12.80;99.90;;;;;;4925623;29;20085;-63
2022/05/07 05:09:02;;;;;;;0.00;0.00;;;12.80;99.90;;;;;;4923788;29;20048;-63
2022/05/07 05:11:28;;;;;;;0.00;0.00;;;12.90;99.90;;;;;;4925256;29;20095;-64
2022/05/07 05:13:54;;;;;;;0.00;0.00;;;12.90;99.90;;;;;;4924787;29;20538;-64
2022/05/07 05:16:19;;;;;;;0.00;0.00;;;13.10;99.90;;;;;;4924991;29;20138;-64
2022/05/07 05:18:45;;;;;;;0.00;0.00;;;13.00;99.90;;;;;;4925276;29;20106;-64
2022/05/07 05:21:11;;;;;;;0.00;0.00;;;13.00;99.90;;;;;;4924037;29;20122;-63
2022/05/07 05:23:36;;;;;;;0.05;0.05;;;13.10;99.90;;;;;;4924814;29;20382;-64
2022/05/07 05:26:02;;;;;;;0.00;0.00;;;13.30;99.90;;;;;;4925151;29;20423;-64
2022/05/07 05:28:28;;;;;;;0.00;0.00;;;13.10;99.90;;;;;;4924754;29;20055;-64
2022/05/07 05:30:53;;;;;;;0.00;0.00;;;13.20;99.90;;;;;;4923183;29;20107;-64
2022/05/07 05:33:19;;;;;;;0.00;0.00;;;13.30;99.90;;;;;;4924798;29;20047;-64
2022/05/07 05:35:45;;;;;;;0.00;0.00;;;13.30;99.90;;;;;;4924899;29;20720;-64
2022/05/07 05:38:11;;;;;;;0.00;0.00;;;13.10;99.90;;;;;;4939509;29;20083;-65
2022/05/07 05:40:36;;;;;;;0.00;0.00;;;13.10;99.90;;;;;;4923580;29;20046;-66
2022/05/07 05:43:02;;;;;;;0.10;0.10;;;13.10;99.90;;;;;;4924974;29;20055;-64
2022/05/07 05:45:27;;;;;;;0.00;0.00;;;13.10;99.90;;;;;;4925454;29;20044;-64
2022/05/07 05:47:54;;;;;;;0.03;0.03;;;13.00;99.90;;;;;;4946809;28;20044;-64
2022/05/07 05:50:20;;;;;;;0.00;0.00;;;13.10;99.90;;;;;;4924554;29;20956;-64
2022/05/07 05:52:45;;;;;;;0.05;0.05;;;13.10;99.90;;;;;;4924511;29;20047;-67
2022/05/07 05:55:11;;;;;;;0.10;0.10;;;13.20;99.90;;;;;;4938322;29;20091;-64
2022/05/07 05:57:37;;;;;;;0.00;0.00;;;13.20;99.90;;;;;;4924229;29;20082;-64
2022/05/07 06:00:09;;;;;;;0.00;0.00;;;13.30;99.90;;;;;;4924576;29;20526;-64
2022/05/07 06:02:36;;;;;;;0.00;0.00;;;13.40;99.90;;;;;;4923484;29;20061;-64
2022/05/07 06:05:01;;;;;;;0.00;0.00;;;13.50;99.90;;;;;;4923484;29;20561;-64
2022/05/07 06:07:27;;;;;;;0.00;0.00;;;13.70;99.90;;;;;;4924241;29;20052;-64
2022/05/07 06:09:52;;;;;;;0.00;0.00;;;13.60;99.90;;;;;;4923623;29;20043;-64
2022/05/07 06:12:18;;;;;;;0.00;0.00;;;13.60;99.90;;;;;;4923821;29;20447;-64
2022/05/07 06:14:44;;;;;;;0.00;0.00;;;13.60;99.90;;;;;;4923471;29;20056;-64
2022/05/07 06:17:09;;;;;;;0.00;0.00;;;13.70;99.90;;;;;;4924193;29;20040;-64
2022/05/07 06:19:35;;;;;;;0.00;0.00;;;13.80;99.90;;;;;;4924291;29;20138;-64
2022/05/07 06:22:00;;;;;;;0.00;0.00;;;13.90;99.90;;;;;;4938415;29;20139;-64
2022/05/07 06:27:30;;;;;;;0.00;0.00;;;14.00;99.90;;;;;;4923967;29;20398;-64
2022/05/07 06:29:59;;;;;;;0.00;0.00;;;14.10;99.90;;;;;;4923980;29;20123;-65
2022/05/07 06:32:38;;;;;;;0.00;0.00;;;14.20;99.90;;;;;;4923470;29;20043;-64
2022/05/07 06:35:08;;;;;;;0.00;0.00;;;14.30;99.90;;;;;;4923030;29;20051;-64
2022/05/07 06:37:35;;;;;;;0.00;0.00;;;14.40;99.90;;;;;;4923483;29;20545;-64
2022/05/07 06:40:04;;;;;;;0.00;0.00;;;14.50;99.90;;;;;;4923355;29;20521;-64
2022/05/07 06:42:29;;;;;;;0.03;0.03;;;14.60;99.90;;;;;;4937161;29;20257;-64
2022/05/07 06:44:55;;;;;;;0.00;0.00;;;14.60;99.90;;;;;;4925241;29;20401;-64
2022/05/07 06:47:21;;;;;;;0.00;0.00;;;14.60;99.90;;;;;;4931853;28;20047;-64
2022/05/07 06:49:46;;;;;;;0.00;0.00;;;14.60;99.90;;;;;;4924427;29;20039;-64
2022/05/07 06:52:12;;;;;;;0.00;0.00;;;14.70;99.90;;;;;;4932067;28;20035;-64
2022/05/07 06:54:38;;;;;;;0.05;0.05;;;14.90;99.90;;;;;;4925810;29;20040;-64
2022/05/07 06:57:04;;;;;;;0.00;0.00;;;15.00;99.90;;;;;;4923658;29;20048;-65
2022/05/07 06:59:33;;;;;;;0.00;0.00;;;15.20;99.90;;;;;;4922538;29;20712;-64
2022/05/07 07:01:59;;;;;;;0.00;0.00;;;15.40;99.90;;;;;;4921988;29;20079;-63
2022/05/07 07:04:27;;;;;;;0.10;0.10;;;15.50;99.90;;;;;;4923110;29;20083;-64
2022/05/07 07:06:53;;;;;;;0.00;0.00;;;15.50;99.90;;;;;;4927313;29;20048;-63
2022/05/07 07:09:18;;;;;;;0.00;0.00;;;15.60;99.90;;;;;;4930425;29;20049;-63
2022/05/07 07:11:44;;;;;;;0.00;0.00;;;15.70;99.90;;;;;;4929693;29;20093;-64
2022/05/07 07:14:10;;;;;;;0.00;0.00;;;15.70;99.90;;;;;;4930907;29;20099;-63
2022/05/07 07:16:36;;;;;;;0.00;0.00;;;15.80;99.90;;;;;;4931770;29;20067;-64
2022/05/07 07:19:02;;;;;;;0.00;0.00;;;15.80;99.90;;;;;;4931936;28;20051;-65
2022/05/07 07:21:28;;;;;;;0.00;0.00;;;16.00;99.90;;;;;;4932909;29;20079;-63
2022/05/07 07:23:54;;;;;;;0.00;0.00;;;16.20;99.90;;;;;;4931004;29;20561;-63
2022/05/07 07:26:20;;;;;;;0.00;0.00;;;16.30;99.90;;;;;;4926281;28;20047;-66
2022/05/07 07:28:46;;;;;;;0.20;0.20;;;16.50;99.90;;;;;;4930266;29;20047;-63
2022/05/07 07:31:12;;;;;;;0.00;0.00;;;16.50;99.90;;;;;;4941437;28;20091;-63
2022/05/07 07:33:38;;;;;;;0.00;0.00;;;16.40;99.90;;;;;;4937285;29;20447;-64
2022/05/07 07:36:05;;;;;;;0.00;0.00;;;16.30;99.90;;;;;;4934629;28;20126;-65
2022/05/07 07:38:31;;;;;;;0.10;0.10;;;16.30;99.90;;;;;;4935585;28;20563;-63
2022/05/07 07:40:57;;;;;;;0.00;0.00;;;16.30;99.90;;;;;;4936614;29;20124;-64
2022/05/07 07:43:23;;;;;;;0.00;0.00;;;16.30;99.90;;;;;;4926213;28;20071;-63
2022/05/07 07:48:33;;;;;;;0.00;0.00;;;16.30;99.90;;;;;;4928667;29;20098;-64
2022/05/07 07:50:59;;;;;;;0.00;0.00;;;16.40;99.90;;;;;;4926139;29;20087;-57
2022/05/07 07:53:25;;;;;;;0.00;0.00;;;16.70;99.90;;;;;;4925810;29;20103;-65
2022/05/07 07:55:51;;;;;;;0.10;0.10;;;17.00;99.90;;;;;;4926696;29;20047;-63
2022/05/07 07:58:17;;;;;;;0.00;0.00;;;17.30;99.90;;;;;;4925716;29;20092;-64
2022/05/07 08:00:46;;;;;;;0.00;0.00;;;17.30;99.90;;;;;;4926713;29;20760;-63
2022/05/07 08:03:14;;;;;;;0.00;0.00;;;17.30;99.90;;;;;;4926438;29;20054;-62
2022/05/07 08:05:42;;;;;;;0.00;0.00;;;17.20;99.90;;;;;;4926427;29;20048;-63
2022/05/07 08:13:40;;;;;;;0.00;0.00;;;17.10;99.90;;;;;;4926855;29;20078;-63
2022/05/07 08:16:09;;;;;;;0.00;0.00;;;17.10;99.90;;;;;;4941332;29;20047;-63
2022/05/07 08:18:35;;;;;;;0.00;0.00;;;17.10;99.90;;;;;;4926073;29;20075;-63
2022/05/07 08:21:01;;;;;;;0.17;0.17;;;17.20;99.90;;;;;;4926075;29;20038;-64
2022/05/07 08:23:27;;;;;;;0.00;0.00;;;17.40;99.90;;;;;;4925295;29;20137;-63
2022/05/07 08:25:54;;;;;;;0.00;0.00;;;17.50;99.90;;;;;;4926251;29;20052;-63
2022/05/07 08:28:20;;;;;;;0.05;0.03;;;17.80;99.90;;;;;;4925193;29;20430;-63
2022/05/07 08:30:47;;;;;;;0.00;0.00;;;18.00;99.90;;;;;;4926311;29;20462;-63
2022/05/07 08:33:13;;;;;;;0.03;0.03;;;18.20;99.90;;;;;;4924528;29;20454;-63
2022/05/07 08:35:38;;;;;;;0.00;0.00;;;18.30;99.90;;;;;;4925878;29;20083;-63
2022/05/07 08:38:04;;;;;;;0.00;0.00;;;18.40;99.90;;;;;;4925072;29;20067;-63
2022/05/07 08:40:30;;;;;;;0.00;0.00;;;18.40;99.90;;;;;;4925836;29;20066;-64
2022/05/07 08:42:56;;;;;;;0.10;0.10;;;18.20;99.90;;;;;;4924682;29;20477;-63
2022/05/07 08:45:23;;;;;;;0.00;0.00;;;18.10;99.90;;;;;;4927243;29;20044;-63
2022/05/07 08:47:53;;;;;;;0.00;0.00;;;18.00;99.90;;;;;;4934158;29;20205;-63
2022/05/07 08:50:20;;;;;;;0.00;0.00;;;17.90;99.90;;;;;;4925545;29;20435;-63
2022/05/07 08:52:47;;;;;;;0.05;0.05;;;17.90;99.90;;;;;;4925907;29;20094;-63
2022/05/07 08:55:14;;;;;;;0.00;0.00;;;17.90;99.90;;;;;;4924277;29;20052;-63
2022/05/07 08:57:42;;;;;;;0.00;0.00;;;17.90;99.90;;;;;;4925517;29;20051;-63
2022/05/07 09:00:09;;;;;;;0.00;0.00;;;18.10;99.90;;;;;;4925809;29;20044;-62
2022/05/07 09:02:58;;;;;;;0.00;0.00;;;18.30;99.90;;;;;;4925079;29;20123;-63
2022/05/07 09:05:37;;;;;;;0.00;0.00;;;18.50;99.90;;;;;;4939708;29;20056;-63
2022/05/07 09:08:05;;;;;;;0.00;0.00;;;18.80;99.90;;;;;;4929619;29;20051;-63
2022/05/07 09:10:33;;;;;;;0.00;0.00;;;19.10;99.90;;;;;;4932860;29;20087;-63
2022/05/07 09:13:11;;;;;;;0.00;0.00;;;19.60;99.90;;;;;;4933348;28;20074;-63
2022/05/07 09:15:47;;;;;;;0.00;0.00;;;20.10;99.90;;;;;;4936660;28;20109;-63
2022/05/07 09:18:14;;;;;;;0.00;0.00;;;20.50;99.90;;;;;;4933985;28;20115;-63
2022/05/07 09:20:40;;;;;;;0.00;0.00;;;20.70;99.90;;;;;;4934809;29;20058;-63
2022/05/07 09:23:06;;;;;;;0.00;0.00;;;20.90;99.90;;;;;;4932796;29;20051;-62
2022/05/07 09:25:32;;;;;;;0.00;0.00;;;21.00;99.90;;;;;;4932767;29;20051;-63
2022/05/07 09:27:58;;;;;;;0.20;0.00;;;20.90;99.90;;;;;;4935248;29;20050;-62
2022/05/07 09:30:28;;;;;;;0.00;0.00;;;20.70;99.90;;;;;;4940497;28;20047;-62
2022/05/07 09:32:55;;;;;;;0.00;0.00;;;20.70;99.90;;;;;;4944300;28;20143;-62
2022/05/07 09:35:47;;;;;;;0.03;0.03;;;20.50;99.90;;;;;;4943673;28;20070;-62
2022/05/07 09:38:14;;;;;;;0.00;0.00;;;20.50;99.90;;;;;;4932337;28;20064;-63
2022/05/07 09:40:41;;;;;;;0.00;0.00;;;20.10;99.90;;;;;;4925753;29;20509;-62
2022/05/07 09:43:13;;;;;;;0.00;0.00;;;20.00;99.90;;;;;;4924343;29;20074;-63
2022/05/07 09:45:40;;;;;;;0.10;0.10;;;19.80;99.90;;;;;;4928301;29;20089;-63
2022/05/07 09:48:07;;;;;;;0.00;0.00;;;19.90;99.90;;;;;;4937325;28;20035;-63
2022/05/07 09:58:43;;;;;;;0.17;0.10;;;19.80;99.90;;;;;;4943193;29;20058;-62
2022/05/07 10:01:21;;;;;;;0.20;0.13;;;19.60;99.90;;;;;;4943248;28;20578;-63
2022/05/07 10:04:15;;;;;;;0.00;0.00;;;19.40;99.90;;;;;;4943354;28;20051;-63
2022/05/07 10:06:41;;;;;;;0.00;0.00;;;19.30;99.90;;;;;;4942566;28;20039;-65
2022/05/07 10:09:27;;;;;;;0.00;0.00;;;19.30;99.90;;;;;;4942949;28;20755;-64
2022/05/07 10:11:55;;;;;;;0.00;0.00;;;19.20;99.90;;;;;;4942056;29;20051;-63
2022/05/07 10:14:30;;;;;;;0.00;0.00;;;19.20;99.90;;;;;;4942284;28;20143;-65
2022/05/07 10:17:00;;;;;;;0.00;0.00;;;19.20;99.90;;;;;;4943000;28;20957;-65
2022/05/07 10:19:39;;;;;;;0.10;0.10;;;19.30;99.90;;;;;;4942667;28;20054;-62
2022/05/07 10:22:29;;;;;;;0.00;0.00;;;19.40;99.90;;;;;;4937921;28;20067;-62
2022/05/07 10:25:21;;;;;;;0.00;0.00;;;19.50;99.90;;;;;;4940328;28;20043;-62
2022/05/07 10:27:49;;;;;;;0.00;0.00;;;19.70;99.90;;;;;;4942297;28;20146;-62
2022/05/07 10:30:21;;;;;;;0.00;0.00;;;19.80;99.90;;;;;;4960942;28;20469;-62
2022/05/07 10:33:03;;;;;;;0.00;0.00;;;19.80;99.90;;;;;;4961850;28;20125;-62
2022/05/07 10:35:41;;;;;;;0.00;0.00;;;19.70;99.90;;;;;;4944300;28;20130;-62
2022/05/07 10:38:08;;;;;;;0.00;0.00;;;19.70;99.90;;;;;;4947978;28;20050;-61
2022/05/07 10:40:34;;;;;;;0.00;0.00;;;19.70;99.90;;;;;;4935553;28;20161;-63
2022/05/07 10:43:00;;;;;;;0.00;0.00;;;19.70;99.90;;;;;;4942820;28;20099;-62
2022/05/07 10:45:27;;;;;;;0.00;0.00;;;19.60;99.90;;;;;;4936449;28;20126;-61
2022/05/07 10:47:57;;;;;;;0.10;0.10;;;19.70;99.90;;;;;;4942552;28;20034;-62
2022/05/07 10:50:23;;;;;;;0.00;0.00;;;19.70;99.90;;;;;;4957409;28;20105;-64
2022/05/07 10:52:58;;;;;;;0.00;0.00;;;19.70;99.90;;;;;;4930688;29;20090;-65
2022/05/07 10:55:26;;;;;;;0.00;0.00;;;19.60;99.90;;;;;;4939905;28;20054;-65
2022/05/07 10:57:52;;;;;;;0.00;0.00;;;19.70;99.90;;;;;;4942435;28;20093;-64
2022/05/07 11:00:22;;;;;;;0.00;0.00;;;19.70;99.90;;;;;;4942344;28;20046;-64
2022/05/07 11:02:55;;;;;;;0.00;0.00;;;19.80;99.90;;;;;;4942104;28;20735;-64
2022/05/07 11:05:32;;;;;;;0.00;0.00;;;19.70;99.90;;;;;;4939856;28;20051;-64
2022/05/07 11:08:00;;;;;;;0.22;0.17;;;19.70;99.90;;;;;;4932464;28;20062;-65
2022/05/07 11:10:25;;;;;;;0.00;0.00;;;19.70;99.90;;;;;;4922603;29;20056;-62
2022/05/07 11:12:52;;;;;;;0.00;0.00;;;19.80;99.90;;;;;;4922802;29;20050;-62
2022/05/07 11:15:24;;;;;;;0.00;0.00;;;19.80;99.90;;;;;;4922800;29;20195;-62
2022/05/07 11:17:50;;;;;;;0.00;0.00;;;19.60;99.90;;;;;;4922796;29;20051;-62
2022/05/07 11:20:31;;;;;;;0.00;0.00;;;19.60;99.90;;;;;;4920050;29;20043;-62
2022/05/07 11:22:59;;;;;;;0.05;0.05;;;19.50;99.90;;;;;;4920250;29;20062;-62
2022/05/07 11:25:24;;;;;;;0.00;0.00;;;19.50;99.90;;;;;;4922554;29;20067;-61
2022/05/07 11:27:51;;;;;;;1.48;0.45;;;19.60;99.90;;;;;;4921696;29;20403;-63
2022/05/07 11:30:17;;;;;;;0.15;0.08;;;19.60;99.90;;;;;;4922558;29;20052;-64
2022/05/07 11:32:44;;;;;;;0.00;0.00;;;19.60;99.90;;;;;;4922540;29;20059;-64
2022/05/07 11:35:10;;;;;;;0.00;0.00;;;19.60;99.90;;;;;;4922022;29;20044;-64
2022/05/07 11:37:46;;;;;;;0.00;0.00;;;19.70;99.90;;;;;;4921290;29;20400;-64
2022/05/07 11:40:13;;;;;;;0.00;0.00;;;19.80;99.90;;;;;;4922266;29;20127;-64
2022/05/07 11:42:45;;;;;;;0.00;0.00;;;19.90;99.90;;;;;;4922905;29;20054;-63
2022/05/07 11:45:29;;;;;;;0.00;0.00;;;20.00;99.90;;;;;;4924761;29;20040;-64
2022/05/07 11:48:04;;;;;;;0.00;0.00;;;19.80;99.90;;;;;;4931220;29;20052;-64
2022/05/07 11:50:32;;;;;;;0.00;0.00;;;19.70;99.90;;;;;;4922652;29;20434;-64
2022/05/07 11:53:13;;;;;;;0.00;0.00;;;19.60;99.90;;;;;;4935801;29;20052;-64
2022/05/07 11:55:39;;;;;;;0.00;0.00;;;19.80;99.90;;;;;;4922713;29;20466;-64
2022/05/07 11:58:16;;;;;;;0.00;0.00;;;19.90;99.90;;;;;;4922275;29;20141;-64
2022/05/07 12:00:43;;;;;;;0.00;0.00;;;20.00;99.90;;;;;;4937225;29;20062;-64
2022/05/07 12:03:09;;;;;;;0.00;0.00;;;20.10;99.90;;;;;;4922791;29;20122;-64
2022/05/07 12:05:47;;;;;;;0.00;0.00;;;20.30;99.90;;;;;;4921822;29;20142;-64
2022/05/07 12:08:14;;;;;;;0.03;0.03;;;20.50;99.90;;;;;;4921364;29;20478;-64
2022/05/07 12:10:40;;;;;;;0.00;0.00;;;20.50;99.90;;;;;;4922564;29;20103;-64
2022/05/07 12:13:05;;;;;;;0.00;0.00;;;20.40;99.90;;;;;;4921964;29;20047;-64
2022/05/07 12:18:15;;;;;;;0.00;0.00;;;20.10;99.90;;;;;;4925303;29;20051;-64
2022/05/07 12:20:41;;;;;;;0.00;0.00;;;19.90;99.90;;;;;;4925179;29;20820;-64
2022/05/07 12:31:19;;;;;;;0.00;0.00;;;19.40;99.90;;;;;;4925090;29;20190;-63
2022/05/07 12:33:45;;;;;;;0.00;0.00;;;19.20;99.90;;;;;;4926021;29;20138;-63
2022/05/07 12:36:10;;;;;;;0.00;0.00;;;19.10;99.90;;;;;;4925781;29;20063;-63
2022/05/07 12:38:36;;;;;;;0.00;0.00;;;19.00;99.90;;;;;;4924569;29;20187;-63
2022/05/07 12:41:01;;;;;;;0.00;0.00;;;18.80;99.90;;;;;;4925755;29;20079;-64
2022/05/07 12:43:28;;;;;;;0.00;0.00;;;18.90;99.90;;;;;;4925132;29;20126;-64
2022/05/07 12:45:54;;;;;;;0.00;0.00;;;19.10;99.90;;;;;;4930508;29;20066;-63
2022/05/07 12:48:20;;;;;;;0.00;0.00;;;19.20;99.90;;;;;;4929956;28;20040;-63
2022/05/07 12:50:46;;;;;;;0.00;0.00;;;19.50;99.90;;;;;;4925785;29;20048;-64
2022/05/07 12:53:15;;;;;;;0.00;0.00;;;19.70;99.90;;;;;;4924825;29;20040;-63
2022/05/07 12:55:42;;;;;;;0.00;0.00;;;19.70;99.90;;;;;;4924777;29;20075;-64
2022/05/07 12:58:09;;;;;;;0.00;0.00;;;19.70;99.90;;;;;;4925756;29;20040;-63
2022/05/07 13:00:36;;;;;;;0.00;0.00;;;19.90;99.90;;;;;;4925785;29;20047;-63
2022/05/07 13:03:02;;;;;;;0.00;0.00;;;20.20;99.90;;;;;;4925565;29;20183;-64
2022/05/07 13:05:29;;;;;;;0.05;0.05;;;20.50;99.90;;;;;;4926064;29;20135;-63
2022/05/07 13:07:55;;;;;;;0.00;0.00;;;20.60;99.90;;;;;;4930351;28;20387;-64
2022/05/07 13:10:21;;;;;;;0.00;0.00;;;20.50;99.90;;;;;;4945670;28;20042;-63
2022/05/07 13:12:46;;;;;;;0.03;0.03;;;20.50;99.90;;;;;;4928666;29;20035;-64
2022/05/07 13:15:12;;;;;;;0.00;0.00;;;20.50;99.90;;;;;;4931002;28;20487;-63
2022/05/07 13:17:38;;;;;;;0.00;0.00;;;20.40;99.90;;;;;;4931191;29;20054;-64
2022/05/07 13:20:04;;;;;;;0.00;0.00;;;20.40;99.90;;;;;;4931480;28;20040;-64
2022/05/07 13:22:32;;;;;;;0.10;0.10;;;20.40;99.90;;;;;;4927714;29;20134;-60
2022/05/07 13:24:58;;;;;;;0.10;0.10;;;20.60;99.90;;;;;;4930674;29;20415;-62
2022/05/07 13:27:24;;;;;;;0.00;0.00;;;20.70;99.90;;;;;;4930520;29;20047;-62